createdAt,value
2016-06-15T00:00:19.674Z,992.75
2016-06-15T00:01:19.772Z,992.74
2016-06-15T00:02:19.681Z,992.73
2016-06-15T00:03:19.731Z,992.72
2016-06-15T00:04:20.078Z,992.73
2016-06-15T00:05:19.753Z,992.7
2016-06-15T00:06:19.740Z,992.72
2016-06-15T00:07:19.821Z,992.73
2016-06-15T00:08:19.762Z,992.71
2016-06-15T00:09:19.734Z,992.72
2016-06-15T00:10:19.738Z,992.76
2016-06-15T00:11:19.755Z,992.71
2016-06-15T00:12:19.744Z,992.67
2016-06-15T00:13:19.808Z,992.69
2016-06-15T00:14:19.765Z,992.66
2016-06-15T00:15:19.815Z,992.67
2016-06-15T00:16:19.803Z,992.65
2016-06-15T00:17:19.774Z,992.64
2016-06-15T00:18:19.855Z,992.64
2016-06-15T00:19:19.858Z,992.66
2016-06-15T00:20:20.471Z,992.64
2016-06-15T00:21:19.803Z,992.64
2016-06-15T00:22:19.805Z,992.59
2016-06-15T00:23:19.871Z,992.64
2016-06-15T00:24:19.827Z,992.64
2016-06-15T00:25:19.831Z,992.61
2016-06-15T00:26:19.864Z,992.62
2016-06-15T00:27:19.837Z,992.62
2016-06-15T00:28:19.854Z,992.63
2016-06-15T00:29:19.889Z,992.6
2016-06-15T00:30:19.876Z,992.6
2016-06-15T00:31:19.864Z,992.62
2016-06-15T00:32:19.867Z,992.61
2016-06-15T00:33:19.964Z,992.62
2016-06-15T00:34:19.920Z,992.62
2016-06-15T00:35:19.923Z,992.62
2016-06-15T00:36:19.974Z,992.63
2016-06-15T00:37:19.929Z,992.59
2016-06-15T00:38:19.916Z,992.6
2016-06-15T00:39:19.920Z,992.6
2016-06-15T00:40:19.939Z,992.59
2016-06-15T00:41:19.925Z,992.58
2016-06-15T00:42:19.945Z,992.59
2016-06-15T00:43:19.948Z,992.56
2016-06-15T00:44:19.951Z,992.57
2016-06-15T00:45:19.954Z,992.57
2016-06-15T00:46:20.004Z,992.56
2016-06-15T00:47:19.960Z,992.55
2016-06-15T00:48:20.010Z,992.56
2016-06-15T00:49:19.997Z,992.61
2016-06-15T00:50:20.032Z,992.54
2016-06-15T00:51:20.020Z,992.56
2016-06-15T00:52:19.991Z,992.55
2016-06-15T00:53:20.057Z,992.59
2016-06-15T00:54:20.060Z,992.52
2016-06-15T00:55:20.016Z,992.56
2016-06-15T00:56:20.019Z,992.54
2016-06-15T00:57:20.038Z,992.49
2016-06-15T00:58:20.072Z,992.53
2016-06-15T00:59:20.111Z,992.52
2016-06-15T01:00:20.167Z,992.49
2016-06-15T01:01:20.190Z,992.5
2016-06-15T01:02:20.229Z,992.5
2016-06-15T01:03:20.250Z,992.52
2016-06-15T01:04:20.282Z,992.54
2016-06-15T01:05:20.344Z,992.52
2016-06-15T01:06:20.329Z,992.53
2016-06-15T01:07:20.345Z,992.51
2016-06-15T01:08:20.385Z,992.52
2016-06-15T01:09:20.363Z,992.51
2016-06-15T01:10:20.370Z,992.5
2016-06-15T01:11:20.473Z,992.54
2016-06-15T01:12:20.746Z,992.51
2016-06-15T01:13:20.470Z,992.52
2016-06-15T01:14:20.412Z,992.53
2016-06-15T01:15:20.479Z,992.59
2016-06-15T01:16:20.422Z,992.58
2016-06-15T01:17:20.535Z,992.53
2016-06-15T01:18:20.493Z,992.55
2016-06-15T01:19:20.465Z,992.58
2016-06-15T01:20:20.453Z,992.56
2016-06-15T01:21:20.457Z,992.59
2016-06-15T01:22:20.540Z,992.61
2016-06-15T01:23:20.464Z,992.57
2016-06-15T01:24:20.530Z,992.56
2016-06-15T01:25:20.486Z,992.57
2016-06-15T01:26:20.520Z,992.58
2016-06-15T01:27:20.493Z,992.56
2016-06-15T01:28:20.511Z,992.54
2016-06-15T01:29:20.530Z,992.56
2016-06-15T01:30:20.626Z,992.54
2016-06-15T01:31:20.552Z,992.57
2016-06-15T01:32:20.523Z,992.57
2016-06-15T01:33:20.542Z,992.56
2016-06-15T01:34:20.544Z,992.61
2016-06-15T01:35:20.595Z,992.6
2016-06-15T01:36:20.550Z,992.59
2016-06-15T01:37:20.601Z,992.62
2016-06-15T01:38:20.557Z,992.6
2016-06-15T01:39:20.576Z,992.6
2016-06-15T01:40:20.579Z,992.6
2016-06-15T01:41:20.613Z,992.63
2016-06-15T01:42:20.616Z,992.6
2016-06-15T01:43:20.635Z,992.59
2016-06-15T01:44:20.670Z,992.64
2016-06-15T01:45:20.610Z,992.61
2016-06-15T01:46:20.644Z,992.57
2016-06-15T01:47:20.647Z,992.59
2016-06-15T01:48:20.666Z,992.57
2016-06-15T01:49:20.654Z,992.6
2016-06-15T01:50:20.876Z,992.57
2016-06-15T01:51:20.707Z,992.58
2016-06-15T01:52:20.663Z,992.56
2016-06-15T01:53:20.650Z,992.55
2016-06-15T01:54:20.731Z,992.59
2016-06-15T01:55:20.703Z,992.55
2016-06-15T01:56:20.706Z,992.56
2016-06-15T01:57:20.709Z,992.57
2016-06-15T01:58:20.681Z,992.61
2016-06-15T01:59:20.779Z,992.59
2016-06-15T02:00:20.703Z,992.62
2016-06-15T02:01:20.753Z,992.63
2016-06-15T02:02:20.709Z,992.63
2016-06-15T02:03:20.728Z,992.64
2016-06-15T02:04:20.731Z,992.62
2016-06-15T02:05:20.734Z,992.63
2016-06-15T02:06:20.784Z,992.62
2016-06-15T02:07:20.740Z,992.59
2016-06-15T02:08:20.774Z,992.6
2016-06-15T02:09:20.840Z,992.59
2016-06-15T02:10:20.796Z,992.58
2016-06-15T02:11:20.769Z,992.57
2016-06-15T02:12:20.772Z,992.59
2016-06-15T02:13:20.790Z,992.56
2016-06-15T02:14:20.793Z,992.55
2016-06-15T02:15:20.796Z,992.54
2016-06-15T02:16:20.893Z,992.57
2016-06-15T02:17:20.865Z,992.56
2016-06-15T02:18:20.805Z,992.56
2016-06-15T02:19:20.824Z,992.56
2016-06-15T02:20:20.843Z,992.56
2016-06-15T02:21:20.830Z,992.57
2016-06-15T02:22:20.850Z,992.56
2016-06-15T02:23:20.836Z,992.55
2016-06-15T02:24:20.856Z,992.54
2016-06-15T02:25:20.858Z,992.56
2016-06-15T02:26:20.907Z,992.54
2016-06-15T02:27:20.895Z,992.54
2016-06-15T02:28:20.899Z,992.58
2016-06-15T02:29:20.885Z,992.55
2016-06-15T02:30:20.889Z,992.54
2016-06-15T02:31:20.891Z,992.52
2016-06-15T02:32:20.895Z,992.5
2016-06-15T02:33:20.945Z,992.54
2016-06-15T02:34:20.932Z,992.5
2016-06-15T02:35:21.123Z,992.52
2016-06-15T02:36:20.923Z,992.54
2016-06-15T02:37:20.926Z,992.52
2016-06-15T02:38:20.929Z,992.52
2016-06-15T02:39:20.947Z,992.52
2016-06-15T02:40:20.950Z,992.49
2016-06-15T02:41:20.954Z,992.46
2016-06-15T02:42:20.956Z,992.46
2016-06-15T02:43:20.960Z,992.44
2016-06-15T02:44:20.979Z,992.39
2016-06-15T02:45:21.060Z,992.41
2016-06-15T02:46:20.985Z,992.41
2016-06-15T02:47:20.988Z,992.43
2016-06-15T02:48:20.991Z,992.44
2016-06-15T02:49:21.010Z,992.41
2016-06-15T02:50:21.170Z,992.41
2016-06-15T02:51:21.016Z,992.41
2016-06-15T02:52:21.020Z,992.34
2016-06-15T02:53:21.022Z,992.34
2016-06-15T02:54:21.041Z,992.35
2016-06-15T02:55:21.044Z,992.36
2016-06-15T02:56:21.047Z,992.29
2016-06-15T02:57:21.049Z,992.34
2016-06-15T02:58:21.053Z,992.31
2016-06-15T02:59:21.118Z,992.34
2016-06-15T03:00:21.075Z,992.37
2016-06-15T03:01:21.078Z,992.32
2016-06-15T03:02:21.082Z,992.33
2016-06-15T03:03:21.084Z,992.32
2016-06-15T03:04:21.087Z,992.33
2016-06-15T03:05:21.106Z,992.32
2016-06-15T03:06:21.110Z,992.33
2016-06-15T03:07:21.113Z,992.3
2016-06-15T03:08:21.116Z,992.32
2016-06-15T03:09:21.119Z,992.3
2016-06-15T03:10:21.121Z,992.31
2016-06-15T03:11:21.140Z,992.3
2016-06-15T03:12:21.143Z,992.28
2016-06-15T03:13:21.146Z,992.24
2016-06-15T03:14:21.149Z,992.25
2016-06-15T03:15:21.152Z,992.24
2016-06-15T03:16:21.171Z,992.28
2016-06-15T03:17:21.175Z,992.25
2016-06-15T03:18:21.177Z,992.3
2016-06-15T03:19:21.180Z,992.27
2016-06-15T03:20:21.183Z,992.24
2016-06-15T03:21:21.201Z,992.25
2016-06-15T03:22:21.204Z,992.24
2016-06-15T03:23:21.208Z,992.24
2016-06-15T03:24:21.210Z,992.22
2016-06-15T03:25:21.230Z,992.23
2016-06-15T03:26:21.233Z,992.24
2016-06-15T03:27:21.236Z,992.21
2016-06-15T03:36:26.670Z,992.21
2016-06-15T03:37:26.673Z,992.2
2016-06-15T03:38:26.676Z,992.19
2016-06-15T03:39:26.679Z,992.24
2016-06-15T03:40:26.698Z,992.17
2016-06-15T03:41:26.701Z,992.18
2016-06-15T03:42:26.704Z,992.18
2016-06-15T03:43:26.707Z,992.2
2016-06-15T03:44:26.726Z,992.21
2016-06-15T03:45:26.730Z,992.19
2016-06-15T03:46:26.732Z,992.19
2016-06-15T03:47:26.736Z,992.17
2016-06-15T03:48:26.738Z,992.18
2016-06-15T03:49:26.742Z,992.15
2016-06-15T03:50:26.759Z,992.16
2016-06-15T03:51:26.763Z,992.18
2016-06-15T03:52:26.765Z,992.2
2016-06-15T03:53:26.769Z,992.21
2016-06-15T03:54:26.771Z,992.21
2016-06-15T03:55:26.775Z,992.18
2016-06-15T03:56:26.794Z,992.18
2016-06-15T03:57:26.797Z,992.19
2016-06-15T03:58:26.801Z,992.2
2016-06-15T03:59:26.803Z,992.19
2016-06-15T04:00:26.853Z,992.18
2016-06-15T04:01:26.825Z,992.21
2016-06-15T04:02:26.827Z,992.22
2016-06-15T04:03:26.831Z,992.22
2016-06-15T04:04:26.833Z,992.17
2016-06-15T04:05:26.837Z,992.12
2016-06-15T04:06:27.153Z,992.16
2016-06-15T04:07:26.859Z,992.16
2016-06-15T04:08:26.862Z,992.14
2016-06-15T04:09:26.881Z,992.18
2016-06-15T04:10:26.868Z,992.16
2016-06-15T04:11:26.871Z,992.15
2016-06-15T04:12:26.890Z,992.14
2016-06-15T04:13:26.893Z,992.19
2016-06-15T04:14:26.896Z,992.14
2016-06-15T04:15:26.900Z,992.14
2016-06-15T04:16:26.902Z,992.14
2016-06-15T04:17:26.921Z,992.17
2016-06-15T04:18:26.940Z,992.15
2016-06-15T04:19:26.927Z,992.14
2016-06-15T04:20:27.321Z,992.13
2016-06-15T04:21:26.933Z,992.11
2016-06-15T04:22:26.936Z,992.13
2016-06-15T04:23:26.955Z,992.1
2016-06-15T04:24:26.959Z,992.1
2016-06-15T04:25:26.961Z,992.12
2016-06-15T04:26:26.965Z,992.1
2016-06-15T04:27:26.983Z,992.1
2016-06-15T04:28:27.424Z,992.11
2016-06-15T04:29:26.990Z,992.08
2016-06-15T04:30:26.993Z,992.13
2016-06-15T04:31:26.996Z,992.12
2016-06-15T04:32:26.999Z,992.14
2016-06-15T04:33:27.017Z,992.16
2016-06-15T04:34:27.020Z,992.12
2016-06-15T04:35:27.023Z,992.17
2016-06-15T04:36:27.089Z,992.15
2016-06-15T04:37:27.045Z,992.16
2016-06-15T04:38:27.032Z,992.16
2016-06-15T04:39:27.051Z,992.15
2016-06-15T04:40:27.055Z,992.15
2016-06-15T04:41:27.057Z,992.18
2016-06-15T04:42:27.060Z,992.18
2016-06-15T04:43:27.063Z,992.17
2016-06-15T04:44:27.081Z,992.23
2016-06-15T04:45:27.084Z,992.19
2016-06-15T04:46:27.088Z,992.21
2016-06-15T04:47:27.090Z,992.2
2016-06-15T04:48:27.094Z,992.18
2016-06-15T04:49:27.113Z,992.21
2016-06-15T04:50:27.116Z,992.22
2016-06-15T04:51:27.228Z,992.19
2016-06-15T04:52:27.122Z,992.23
2016-06-15T04:53:27.125Z,992.22
2016-06-15T04:54:27.144Z,992.32
2016-06-15T04:55:27.147Z,992.29
2016-06-15T04:56:27.150Z,992.32
2016-06-15T04:57:27.154Z,992.33
2016-06-15T04:58:27.156Z,992.41
2016-06-15T04:59:27.175Z,992.46
2016-06-15T05:00:27.224Z,992.36
2016-06-15T05:01:27.181Z,992.31
2016-06-15T05:02:27.184Z,992.31
2016-06-15T05:03:27.187Z,992.29
2016-06-15T05:04:27.190Z,992.32
2016-06-15T05:05:27.209Z,992.32
2016-06-15T05:06:27.212Z,992.31
2016-06-15T05:07:27.215Z,992.28
2016-06-15T05:08:27.219Z,992.27
2016-06-15T05:09:27.237Z,992.3
2016-06-15T05:10:27.241Z,992.27
2016-06-15T05:11:27.243Z,992.32
2016-06-15T05:12:27.247Z,992.34
2016-06-15T05:13:27.250Z,992.32
2016-06-15T05:14:27.253Z,992.35
2016-06-15T05:15:27.271Z,992.37
2016-06-15T05:16:27.274Z,992.39
2016-06-15T05:17:27.277Z,992.37
2016-06-15T05:18:27.280Z,992.39
2016-06-15T05:19:27.300Z,992.4
2016-06-15T05:20:27.302Z,992.42
2016-06-15T05:21:27.306Z,992.43
2016-06-15T05:22:27.308Z,992.46
2016-06-15T05:23:27.312Z,992.44
2016-06-15T05:24:27.329Z,992.44
2016-06-15T05:25:27.333Z,992.45
2016-06-15T05:26:27.335Z,992.43
2016-06-15T05:27:27.339Z,992.49
2016-06-15T05:28:27.358Z,992.55
2016-06-15T05:29:27.361Z,992.5
2016-06-15T05:30:27.364Z,992.5
2016-06-15T05:31:27.367Z,992.57
2016-06-15T05:32:28.495Z,992.55
2016-06-15T05:33:27.389Z,992.6
2016-06-15T05:34:27.392Z,992.58
2016-06-15T05:35:27.396Z,992.66
2016-06-15T05:36:27.398Z,992.61
2016-06-15T05:37:27.401Z,992.57
2016-06-15T05:38:27.404Z,992.6
2016-06-15T05:39:27.422Z,992.54
2016-06-15T05:40:27.425Z,992.56
2016-06-15T05:41:27.429Z,992.56
2016-06-15T05:42:27.432Z,992.51
2016-06-15T05:43:28.137Z,992.52
2016-06-15T05:44:27.454Z,992.54
2016-06-15T05:45:27.457Z,992.55
2016-06-15T05:46:27.461Z,992.59
2016-06-15T05:47:27.463Z,992.61
2016-06-15T05:48:27.483Z,992.64
2016-06-15T05:49:27.485Z,992.64
2016-06-15T05:50:27.488Z,992.63
2016-06-15T05:51:27.491Z,992.64
2016-06-15T05:52:27.510Z,992.67
2016-06-15T05:53:27.512Z,992.74
2016-06-15T05:54:27.813Z,992.79
2016-06-15T05:55:27.518Z,992.95
2016-06-15T05:56:27.522Z,993.07
2016-06-15T05:57:27.541Z,992.84
2016-06-15T05:58:27.544Z,992.85
2016-06-15T05:59:27.547Z,992.95
2016-06-15T06:00:27.550Z,992.98
2016-06-15T06:01:27.553Z,992.95
2016-06-15T06:02:27.572Z,993.73
2016-06-15T06:03:27.574Z,993.26
2016-06-15T06:04:27.578Z,993.67
2016-06-15T06:05:27.580Z,993.59
2016-06-15T06:06:27.599Z,993.95
2016-06-15T06:07:27.603Z,994.37
2016-06-15T06:08:27.606Z,994.19
2016-06-15T06:09:27.608Z,994.4
2016-06-15T06:10:27.628Z,994.42
2016-06-15T06:11:27.631Z,994.18
2016-06-15T06:12:27.634Z,993.9
2016-06-15T06:13:27.653Z,993.57
2016-06-15T06:14:27.655Z,993.26
2016-06-15T06:15:27.659Z,993.19
2016-06-15T06:16:27.677Z,993.27
2016-06-15T06:17:27.681Z,993.32
2016-06-15T06:18:28.745Z,993.36
2016-06-15T06:19:27.703Z,993.32
2016-06-15T06:20:27.706Z,993.19
2016-06-15T06:21:28.459Z,993.11
2016-06-15T06:22:27.727Z,993.27
2016-06-15T06:23:27.730Z,993.41
2016-06-15T06:24:27.733Z,993.61
2016-06-15T06:25:27.736Z,994.15
2016-06-15T06:26:27.755Z,994.01
2016-06-15T06:27:27.758Z,993.4
2016-06-15T06:28:27.761Z,993.21
2016-06-15T06:29:28.374Z,993.12
2016-06-15T06:30:27.782Z,993.19
2016-06-15T06:31:27.786Z,993.35
2016-06-15T06:32:27.804Z,993.86
2016-06-15T06:33:27.808Z,993.14
2016-06-15T06:34:27.811Z,993.09
2016-06-15T06:35:27.830Z,993.59
2016-06-15T06:36:27.833Z,993.18
2016-06-15T06:37:27.835Z,993.81
2016-06-15T06:38:27.854Z,993.14
2016-06-15T06:39:27.857Z,993.05
2016-06-15T06:40:28.470Z,993.04
2016-06-15T06:41:27.863Z,993.06
2016-06-15T06:42:27.882Z,993.31
2016-06-15T06:43:27.885Z,993.23
2016-06-15T06:44:27.888Z,993.13
2016-06-15T06:45:27.908Z,993.2
2016-06-15T06:46:27.910Z,993.68
2016-06-15T06:47:27.914Z,993.54
2016-06-15T06:48:27.931Z,993.61
2016-06-15T06:49:27.935Z,993.54
2016-06-15T06:50:27.938Z,993.75
2016-06-15T06:51:28.504Z,993.51
2016-06-15T06:52:27.960Z,993.41
2016-06-15T06:53:27.963Z,993.27
2016-06-15T06:54:27.981Z,993.57
2016-06-15T06:55:27.985Z,993.59
2016-06-15T06:56:27.987Z,993.47
2016-06-15T06:57:27.991Z,993.42
2016-06-15T06:58:28.009Z,993.22
2016-06-15T06:59:28.013Z,993.16
2016-06-15T07:00:28.032Z,993.21
2016-06-15T07:01:28.035Z,993.17
2016-06-15T07:02:28.538Z,993.28
2016-06-15T07:03:28.041Z,993.2
2016-06-15T07:04:28.059Z,993.23
2016-06-15T07:05:28.062Z,993.22
2016-06-15T07:06:28.065Z,993.15
2016-06-15T07:07:28.084Z,993.16
2016-06-15T07:08:28.103Z,993.15
2016-06-15T07:09:28.090Z,993.18
2016-06-15T07:10:28.093Z,993.21
2016-06-15T07:11:28.113Z,993.19
2016-06-15T07:12:28.115Z,993.22
2016-06-15T07:13:28.181Z,993.24
2016-06-15T07:14:28.121Z,993.2
2016-06-15T07:15:28.140Z,993.19
2016-06-15T07:16:28.143Z,993.21
2016-06-15T07:17:28.146Z,993.22
2016-06-15T07:18:28.149Z,993.16
2016-06-15T07:19:28.168Z,993.11
2016-06-15T07:20:28.171Z,993.19
2016-06-15T07:21:28.175Z,993.18
2016-06-15T07:22:28.192Z,993.16
2016-06-15T07:23:28.195Z,993.15
2016-06-15T07:24:28.198Z,993.16
2016-06-15T07:25:28.202Z,993.21
2016-06-15T07:26:28.220Z,993.19
2016-06-15T07:27:28.224Z,993.19
2016-06-15T07:28:28.227Z,993.24
2016-06-15T07:29:28.246Z,993.23
2016-06-15T07:30:28.233Z,993.25
2016-06-15T07:31:28.252Z,993.25
2016-06-15T07:32:28.255Z,993.22
2016-06-15T07:33:28.258Z,993.29
2016-06-15T07:34:28.261Z,993.29
2016-06-15T07:35:28.279Z,993.28
2016-06-15T07:36:28.282Z,993.28
2016-06-15T07:37:28.285Z,993.31
2016-06-15T07:38:28.288Z,993.33
2016-06-15T07:39:28.307Z,993.29
2016-06-15T07:40:28.311Z,993.3
2016-06-15T07:41:28.314Z,993.31
2016-06-15T07:42:28.316Z,993.4
2016-06-15T07:43:28.320Z,993.44
2016-06-15T07:44:28.339Z,993.47
2016-06-15T07:45:28.342Z,993.44
2016-06-15T07:46:28.345Z,993.4
2016-06-15T07:47:28.363Z,993.37
2016-06-15T07:48:28.366Z,993.35
2016-06-15T07:49:28.369Z,993.32
2016-06-15T07:50:28.372Z,993.29
2016-06-15T07:51:28.750Z,993.25
2016-06-15T07:52:28.395Z,993.24
2016-06-15T07:53:28.397Z,993.21
2016-06-15T07:54:28.400Z,993.18
2016-06-15T07:55:28.404Z,993.16
2016-06-15T07:56:28.422Z,993.17
2016-06-15T07:57:28.425Z,993.18
2016-06-15T07:58:28.427Z,993.12
2016-06-15T07:59:28.431Z,993.13
2016-06-15T08:00:28.450Z,993.09
2016-06-15T08:01:28.500Z,993.13
2016-06-15T08:02:28.503Z,993.07
2016-06-15T08:03:28.459Z,993.08
2016-06-15T08:04:28.462Z,993.09
2016-06-15T08:05:28.481Z,993.11
2016-06-15T08:06:28.485Z,993.11
2016-06-15T08:07:28.877Z,993.13
2016-06-15T08:08:28.491Z,993.11
2016-06-15T08:09:28.494Z,993.12
2016-06-15T08:10:28.511Z,993.05
2016-06-15T08:11:28.515Z,993.03
2016-06-15T08:12:28.517Z,993.03
2016-06-15T08:13:28.521Z,993.03
2016-06-15T08:14:28.540Z,993.01
2016-06-15T08:15:28.543Z,993.05
2016-06-15T08:16:28.563Z,993.05
2016-06-15T08:17:29.658Z,993.03
2016-06-15T08:18:28.568Z,993.04
2016-06-15T08:19:28.586Z,993.05
2016-06-15T08:20:28.620Z,993.04
2016-06-15T08:21:28.578Z,993.05
2016-06-15T08:22:28.658Z,993.04
2016-06-15T08:23:28.599Z,992.99
2016-06-15T08:24:28.602Z,993.02
2016-06-15T08:25:28.605Z,993.06
2016-06-15T08:26:28.639Z,993.06
2016-06-15T08:27:28.627Z,993.09
2016-06-15T08:28:29.677Z,993.16
2016-06-15T08:29:28.633Z,993.13
2016-06-15T08:30:28.636Z,993.17
2016-06-15T08:31:28.654Z,993.15
2016-06-15T08:32:28.658Z,993.16
2016-06-15T08:33:28.660Z,993.11
2016-06-15T08:34:28.664Z,993.11
2016-06-15T08:35:28.667Z,993.08
2016-06-15T08:36:28.811Z,993.04
2016-06-15T08:37:28.689Z,993.04
2016-06-15T08:38:28.691Z,993.06
2016-06-15T08:39:29.242Z,993.07
2016-06-15T08:40:28.698Z,993.12
2016-06-15T08:41:28.717Z,993.13
2016-06-15T08:42:28.720Z,993.13
2016-06-15T08:43:28.723Z,993.14
2016-06-15T08:44:28.726Z,993.1
2016-06-15T08:45:28.730Z,993.12
2016-06-15T08:46:28.747Z,993.13
2016-06-15T08:47:28.751Z,993.11
2016-06-15T08:48:28.753Z,993.08
2016-06-15T08:49:28.756Z,993.06
2016-06-15T08:50:28.963Z,993.09
2016-06-15T08:51:29.872Z,993.09
2016-06-15T08:52:28.782Z,993.1
2016-06-15T08:53:28.784Z,993.11
2016-06-15T08:54:28.788Z,993.12
2016-06-15T08:55:28.807Z,993.1
2016-06-15T08:56:28.810Z,993.1
2016-06-15T08:57:28.813Z,993.1
2016-06-15T08:58:28.816Z,993.12
2016-06-15T08:59:28.850Z,993.1
2016-06-15T09:00:28.837Z,993.1
2016-06-15T09:01:28.935Z,993.11
2016-06-15T09:02:28.844Z,993.09
2016-06-15T09:03:28.847Z,993.07
2016-06-15T09:04:28.913Z,993.09
2016-06-15T09:05:28.869Z,993.09
2016-06-15T09:06:28.872Z,993.08
2016-06-15T09:07:28.875Z,993.08
2016-06-15T09:08:28.879Z,993.08
2016-06-15T09:09:28.896Z,993.1
2016-06-15T09:10:28.899Z,993.08
2016-06-15T09:11:28.903Z,993.04
2016-06-15T09:12:28.905Z,993
2016-06-15T09:13:34.762Z,992.96
2016-06-15T09:14:28.903Z,993
2016-06-15T09:15:45.252Z,993
2016-06-15T09:16:28.940Z,992.99
2016-06-15T09:17:28.943Z,992.99
2016-06-15T09:18:28.947Z,992.99
2016-06-15T09:19:28.949Z,992.98
2016-06-15T09:20:28.967Z,992.95
2016-06-15T09:21:28.971Z,992.93
2016-06-15T09:22:29.177Z,992.92
2016-06-15T09:23:28.977Z,992.92
2016-06-15T09:24:28.995Z,992.95
2016-06-15T09:25:28.999Z,992.98
2016-06-15T09:26:29.001Z,992.97
2016-06-15T09:27:29.005Z,992.95
2016-06-15T09:28:29.024Z,992.91
2016-06-15T09:29:29.021Z,992.95
2016-06-15T09:30:29.024Z,992.95
2016-06-15T09:31:29.043Z,992.94
2016-06-15T09:32:29.047Z,992.94
2016-06-15T09:33:29.050Z,992.93
2016-06-15T09:34:29.052Z,992.91
2016-06-15T09:35:29.071Z,992.9
2016-06-15T09:36:29.074Z,992.93
2016-06-15T09:37:29.076Z,992.93
2016-06-15T09:38:29.079Z,992.9
2016-06-15T09:39:29.082Z,992.9
2016-06-15T09:40:29.102Z,992.93
2016-06-15T09:41:29.105Z,992.92
2016-06-15T09:42:29.108Z,992.86
2016-06-15T09:43:29.111Z,992.92
2016-06-15T09:44:29.129Z,992.86
2016-06-15T09:45:29.133Z,992.87
2016-06-15T09:47:29.138Z,992.9
2016-06-15T09:51:29.167Z,992.89
2016-06-15T09:53:29.189Z,992.95
2016-06-15T09:58:47.516Z,992.82
2016-06-15T10:01:56.684Z,992.79
2016-06-15T10:02:56.687Z,992.82
2016-06-15T10:03:56.709Z,992.8
2016-06-15T10:04:56.752Z,992.87
2016-06-15T10:05:56.811Z,992.86
2016-06-15T10:06:56.855Z,992.84
2016-06-15T10:07:56.897Z,992.85
2016-06-15T10:08:56.928Z,992.87
2016-06-15T10:09:56.962Z,992.9
2016-06-15T10:10:56.978Z,992.86
2016-06-15T10:11:56.996Z,992.89
2016-06-15T10:12:57.014Z,992.88
2016-06-15T10:13:57.027Z,992.94
2016-06-15T10:14:57.050Z,992.99
2016-06-15T10:16:03.027Z,992.98
2016-06-15T10:16:57.067Z,993
2016-06-15T10:17:57.075Z,993.01
2016-06-15T10:18:57.098Z,993.06
2016-06-15T10:19:57.103Z,993.09
2016-06-15T10:20:57.108Z,993.09
2016-06-15T10:21:57.113Z,993.07
2016-06-15T10:22:57.118Z,993.06
2016-06-15T10:23:57.138Z,993.07
2016-06-15T10:24:57.142Z,993.06
2016-06-15T10:25:57.146Z,993.05
2016-06-15T10:26:57.148Z,993.1
2016-06-15T10:27:57.167Z,993.15
2016-06-15T10:28:57.171Z,993.11
2016-06-15T10:29:57.174Z,993.08
2016-06-15T10:30:57.177Z,993.15
2016-06-15T10:31:57.181Z,993.17
2016-06-15T10:32:57.200Z,993.15
2016-06-15T10:33:57.219Z,993.16
2016-06-15T10:34:57.207Z,993.15
2016-06-15T10:36:01.757Z,993.15
2016-06-15T10:36:57.651Z,993.21
2016-06-15T10:37:57.231Z,993.2
2016-06-15T10:39:03.141Z,993.17
2016-06-15T10:40:10.692Z,993.22
2016-06-15T10:41:43.601Z,993.23
2016-06-15T10:42:41.729Z,993.22
2016-06-15T10:43:35.716Z,993.21
2016-06-15T10:44:35.719Z,993.22
2016-06-15T10:45:36.878Z,993.18
2016-06-15T10:46:38.773Z,993.13
2016-06-15T10:47:38.088Z,993.11
2016-06-15T10:49:06.466Z,993.09
2016-06-15T10:50:06.126Z,993.08
2016-06-15T10:51:06.613Z,993.07
2016-06-15T10:52:06.804Z,993.09
2016-06-15T10:53:35.482Z,993.04
2016-06-15T10:55:03.266Z,993.06
2016-06-15T10:55:49.456Z,993.04
2016-06-15T10:56:49.475Z,993.09
2016-06-15T10:57:49.478Z,993.07
2016-06-15T10:58:49.481Z,993.04
2016-06-15T10:59:49.485Z,993.02
2016-06-15T11:00:49.504Z,993.05
2016-06-15T11:01:49.507Z,993.03
2016-06-15T11:02:49.510Z,993.03
2016-06-15T11:03:49.513Z,993.02
2016-06-15T11:04:49.516Z,993
2016-06-15T11:05:49.534Z,992.98
2016-06-15T11:06:49.538Z,992.98
2016-06-15T11:07:49.540Z,992.99
2016-06-15T11:08:49.606Z,992.96
2016-06-15T11:09:49.563Z,992.96
2016-06-15T11:10:49.565Z,992.94
2016-06-15T11:11:49.569Z,992.95
2016-06-15T11:12:49.572Z,992.9
2016-06-15T11:13:49.575Z,992.91
2016-06-15T11:14:49.592Z,992.9
2016-06-15T11:15:49.596Z,992.92
2016-06-15T11:16:49.599Z,992.96
2016-06-15T11:17:49.602Z,992.97
2016-06-15T11:18:49.606Z,993.04
2016-06-15T11:19:49.624Z,993.04
2016-06-15T11:20:49.628Z,993.08
2016-06-15T11:21:49.647Z,993.12
2016-06-15T11:22:49.633Z,993.12
2016-06-15T11:23:49.652Z,993.13
2016-06-15T11:24:49.656Z,993.13
2016-06-15T11:25:49.658Z,993.19
2016-06-15T11:26:49.677Z,993.19
2016-06-15T11:27:49.680Z,993.24
2016-06-15T11:28:49.682Z,993.22
2016-06-15T11:29:49.686Z,993.22
2016-06-15T11:30:49.689Z,993.26
2016-06-15T11:31:49.708Z,993.27
2016-06-15T11:32:49.711Z,993.23
2016-06-15T11:33:49.714Z,993.27
2016-06-15T11:34:49.717Z,993.23
2016-06-15T11:35:49.737Z,993.22
2016-06-15T11:36:49.740Z,993.13
2016-06-15T11:37:50.007Z,993.2
2016-06-15T11:38:49.745Z,993.15
2016-06-15T11:39:49.748Z,993.15
2016-06-15T11:40:49.766Z,993.22
2016-06-15T11:41:49.755Z,993.16
2016-06-15T11:42:49.758Z,993.16
2016-06-15T11:43:49.761Z,993.18
2016-06-15T11:44:49.764Z,993.2
2016-06-15T11:45:49.782Z,993.21
2016-06-15T11:46:49.786Z,993.18
2016-06-15T11:47:49.788Z,993.18
2016-06-15T11:48:49.791Z,993.2
2016-06-15T11:49:49.795Z,993.22
2016-06-15T11:50:49.813Z,993.23
2016-06-15T11:51:49.817Z,993.25
2016-06-15T11:52:49.804Z,993.29
2016-06-15T11:53:49.807Z,993.29
2016-06-15T11:54:49.810Z,993.29
2016-06-15T11:55:49.828Z,993.25
2016-06-15T11:56:49.816Z,993.29
2016-06-15T11:57:49.819Z,993.29
2016-06-15T11:58:49.822Z,993.25
2016-06-15T11:59:49.826Z,993.25
2016-06-15T12:00:49.828Z,993.27
2016-06-15T12:01:49.832Z,993.26
2016-06-15T12:02:49.820Z,993.25
2016-06-15T12:03:49.823Z,993.21
2016-06-15T12:04:49.841Z,993.18
2016-06-15T12:05:49.828Z,993.16
2016-06-15T12:06:49.832Z,993.18
2016-06-15T12:07:49.880Z,993.17
2016-06-15T12:08:49.838Z,993.13
2016-06-15T12:09:49.841Z,993.1
2016-06-15T12:10:49.859Z,993.16
2016-06-15T12:11:49.847Z,993.15
2016-06-15T12:12:49.850Z,993.12
2016-06-15T12:13:49.853Z,993.09
2016-06-15T12:14:49.857Z,993.09
2016-06-15T12:15:49.844Z,993.05
2016-06-15T12:16:49.846Z,993.08
2016-06-15T12:17:49.849Z,993.04
2016-06-15T12:18:49.853Z,993.08
2016-06-15T12:19:49.856Z,993.08
2016-06-15T12:20:49.859Z,993.09
2016-06-15T12:21:49.862Z,993.12
2016-06-15T12:22:49.864Z,993.13
2016-06-15T12:23:49.868Z,993.11
2016-06-15T12:24:49.871Z,993.09
2016-06-15T12:25:49.874Z,993.06
2016-06-15T12:26:49.877Z,993.12
2016-06-15T12:27:49.880Z,993.15
2016-06-15T12:28:49.883Z,993.1
2016-06-15T12:29:49.887Z,993.07
2016-06-15T12:30:49.874Z,993.09
2016-06-15T12:31:49.893Z,993.07
2016-06-15T12:32:49.895Z,993.01
2016-06-15T12:33:49.898Z,993
2016-06-15T12:34:49.886Z,993.01
2016-06-15T12:35:49.889Z,992.88
2016-06-15T12:36:49.907Z,992.9
2016-06-15T12:37:49.911Z,992.87
2016-06-15T12:38:49.898Z,992.87
2016-06-15T12:39:49.901Z,992.87
2016-06-15T12:40:49.905Z,992.86
2016-06-15T12:41:49.907Z,992.86
2016-06-15T12:42:49.910Z,992.9
2016-06-15T12:43:49.898Z,992.89
2016-06-15T12:44:49.902Z,992.9
2016-06-15T12:45:49.905Z,992.91
2016-06-15T12:46:49.908Z,992.88
2016-06-15T12:47:49.911Z,992.93
2016-06-15T12:48:49.913Z,992.99
2016-06-15T12:49:49.917Z,993.04
2016-06-15T12:50:49.904Z,993.07
2016-06-15T12:51:49.907Z,993.13
2016-06-15T12:52:49.910Z,993.17